Saint Agatha, Maine
Current Conditions -  °F | °C
As of 1:53 AM on Saturday 25 Oct 2014 (Local Time) from KFVE Reporting Station
Overcast Overcast  
Wind Chill: 30°   Ceiling: 3600
Heat Index: 37°   Visibility: 10mi
Dew Point: 33°   Wind: 9mph
Humidity: 86%   Direction: 330°NNW
Pressure: 29.65"   Gusts: NA
Location:  47.24°N, 68.31°W
Report Text: KFVE 250553Z AUTO 33008KT 10SM OVC036 03/01 A2965 RMK AO2 SLP045 60010 T00280006 10039 20022 58011
Loading
Personal Weather Stations






























Interactive Weather Map New forecast layout! Learn more

10-Day Weather Forecast

Advertisements
Track Severe Weather on mobile